sensor_id;sensor_type;location;lat;lon;timestamp;P1;durP1;ratioP1;P2;durP2;ratioP2
22476;SDS011;65006;51.698;-0.292;2023-07-22T00:00:12;4.68;;;1.40;;
22476;SDS011;65006;51.698;-0.292;2023-07-22T00:02:39;3.90;;;1.20;;
22476;SDS011;65006;51.698;-0.292;2023-07-22T00:05:05;3.80;;;1.40;;
22476;SDS011;65006;51.698;-0.292;2023-07-22T00:07:31;2.38;;;0.80;;
22476;SDS011;65006;51.698;-0.292;2023-07-22T00:09:57;2.88;;;1.08;;
22476;SDS011;65006;51.698;-0.292;2023-07-22T00:12:23;4.63;;;1.38;;
22476;SDS011;65006;51.698;-0.292;2023-07-22T00:14:51;3.25;;;1.27;;
22476;SDS011;65006;51.698;-0.292;2023-07-22T00:17:18;1.83;;;1.00;;
22476;SDS011;65006;51.698;-0.292;2023-07-22T00:19:45;2.88;;;1.20;;
22476;SDS011;65006;51.698;-0.292;2023-07-22T00:22:11;3.03;;;1.15;;
22476;SDS011;65006;51.698;-0.292;2023-07-22T00:24:37;2.63;;;1.38;;
22476;SDS011;65006;51.698;-0.292;2023-07-22T00:27:03;2.50;;;1.15;;
22476;SDS011;65006;51.698;-0.292;2023-07-22T00:29:31;3.08;;;1.40;;
22476;SDS011;65006;51.698;-0.292;2023-07-22T00:31:57;2.10;;;1.30;;
22476;SDS011;65006;51.698;-0.292;2023-07-22T00:34:23;4.75;;;1.60;;
22476;SDS011;65006;51.698;-0.292;2023-07-22T00:36:49;8.50;;;1.58;;
22476;SDS011;65006;51.698;-0.292;2023-07-22T00:39:15;3.70;;;1.65;;
22476;SDS011;65006;51.698;-0.292;2023-07-22T00:41:41;4.20;;;1.50;;
22476;SDS011;65006;51.698;-0.292;2023-07-22T00:44:10;3.88;;;1.75;;
22476;SDS011;65006;51.698;-0.292;2023-07-22T00:46:37;6.97;;;1.67;;
22476;SDS011;65006;51.698;-0.292;2023-07-22T00:49:05;5.55;;;2.05;;
22476;SDS011;65006;51.698;-0.292;2023-07-22T00:51:31;4.07;;;1.40;;
22476;SDS011;65006;51.698;-0.292;2023-07-22T00:53:57;2.83;;;1.63;;
22476;SDS011;65006;51.698;-0.292;2023-07-22T00:56:23;6.40;;;1.80;;
22476;SDS011;65006;51.698;-0.292;2023-07-22T00:58:49;5.63;;;1.38;;
22476;SDS011;65006;51.698;-0.292;2023-07-22T01:01:15;3.20;;;1.27;;
22476;SDS011;65006;51.698;-0.292;2023-07-22T01:03:41;5.63;;;1.33;;
22476;SDS011;65006;51.698;-0.292;2023-07-22T01:06:07;3.47;;;1.55;;
22476;SDS011;65006;51.698;-0.292;2023-07-22T01:08:34;1.95;;;1.30;;
22476;SDS011;65006;51.698;-0.292;2023-07-22T01:11:00;5.65;;;1.63;;
22476;SDS011;65006;51.698;-0.292;2023-07-22T01:13:26;4.38;;;1.20;;
22476;SDS011;65006;51.698;-0.292;2023-07-22T01:18:19;2.80;;;1.35;;
22476;SDS011;65006;51.698;-0.292;2023-07-22T01:20:45;2.72;;;1.30;;
22476;SDS011;65006;51.698;-0.292;2023-07-22T01:23:11;2.45;;;1.45;;
22476;SDS011;65006;51.698;-0.292;2023-07-22T01:25:37;6.05;;;1.48;;
22476;SDS011;65006;51.698;-0.292;2023-07-22T01:28:05;3.10;;;1.35;;
22476;SDS011;65006;51.698;-0.292;2023-07-22T01:30:34;5.43;;;1.92;;
22476;SDS011;65006;51.698;-0.292;2023-07-22T01:33:00;1.77;;;0.93;;
22476;SDS011;65006;51.698;-0.292;2023-07-22T01:35:27;2.80;;;1.20;;
22476;SDS011;65006;51.698;-0.292;2023-07-22T01:37:53;3.90;;;1.02;;
22476;SDS011;65006;51.698;-0.292;2023-07-22T01:40:22;4.57;;;1.20;;
22476;SDS011;65006;51.698;-0.292;2023-07-22T01:42:48;2.85;;;1.23;;
22476;SDS011;65006;51.698;-0.292;2023-07-22T01:45:14;2.03;;;1.10;;
22476;SDS011;65006;51.698;-0.292;2023-07-22T01:47:40;2.00;;;1.33;;
22476;SDS011;65006;51.698;-0.292;2023-07-22T01:50:06;7.80;;;1.42;;
22476;SDS011;65006;51.698;-0.292;2023-07-22T01:54:59;5.63;;;1.60;;
22476;SDS011;65006;51.698;-0.292;2023-07-22T01:57:25;6.45;;;1.60;;
22476;SDS011;65006;51.698;-0.292;2023-07-22T01:59:51;3.50;;;1.60;;
22476;SDS011;65006;51.698;-0.292;2023-07-22T02:02:17;2.65;;;1.40;;
22476;SDS011;65006;51.698;-0.292;2023-07-22T02:04:43;4.30;;;1.42;;
22476;SDS011;65006;51.698;-0.292;2023-07-22T02:07:09;6.38;;;1.50;;
22476;SDS011;65006;51.698;-0.292;2023-07-22T02:09:35;3.28;;;1.40;;
22476;SDS011;65006;51.698;-0.292;2023-07-22T02:12:01;2.63;;;1.67;;
22476;SDS011;65006;51.698;-0.292;2023-07-22T02:14:27;4.07;;;1.42;;
22476;SDS011;65006;51.698;-0.292;2023-07-22T02:16:53;6.38;;;1.42;;
22476;SDS011;65006;51.698;-0.292;2023-07-22T02:19:19;4.70;;;1.65;;
22476;SDS011;65006;51.698;-0.292;2023-07-22T02:21:45;4.72;;;1.73;;
22476;SDS011;65006;51.698;-0.292;2023-07-22T02:24:15;2.97;;;1.45;;
22476;SDS011;65006;51.698;-0.292;2023-07-22T02:26:41;4.30;;;1.55;;
22476;SDS011;65006;51.698;-0.292;2023-07-22T02:29:07;2.33;;;1.30;;
22476;SDS011;65006;51.698;-0.292;2023-07-22T02:31:33;2.53;;;1.67;;
22476;SDS011;65006;51.698;-0.292;2023-07-22T02:33:59;2.90;;;1.02;;
22476;SDS011;65006;51.698;-0.292;2023-07-22T02:36:25;5.03;;;1.52;;
22476;SDS011;65006;51.698;-0.292;2023-07-22T02:38:51;2.35;;;1.35;;
22476;SDS011;65006;51.698;-0.292;2023-07-22T02:41:17;4.15;;;1.40;;
22476;SDS011;65006;51.698;-0.292;2023-07-22T02:43:43;5.13;;;1.50;;
22476;SDS011;65006;51.698;-0.292;2023-07-22T02:46:09;1.85;;;1.00;;
22476;SDS011;65006;51.698;-0.292;2023-07-22T02:48:35;1.48;;;1.20;;
22476;SDS011;65006;51.698;-0.292;2023-07-22T02:51:03;2.22;;;1.45;;
22476;SDS011;65006;51.698;-0.292;2023-07-22T02:53:30;3.30;;;1.20;;
22476;SDS011;65006;51.698;-0.292;2023-07-22T02:55:56;3.22;;;1.30;;
22476;SDS011;65006;51.698;-0.292;2023-07-22T02:58:22;2.55;;;1.17;;
22476;SDS011;65006;51.698;-0.292;2023-07-22T03:00:48;4.18;;;1.30;;
22476;SDS011;65006;51.698;-0.292;2023-07-22T03:03:14;3.80;;;1.10;;
22476;SDS011;65006;51.698;-0.292;2023-07-22T03:05:40;2.40;;;1.17;;
22476;SDS011;65006;51.698;-0.292;2023-07-22T03:08:06;3.63;;;1.40;;
22476;SDS011;65006;51.698;-0.292;2023-07-22T03:10:32;3.10;;;0.90;;
22476;SDS011;65006;51.698;-0.292;2023-07-22T03:12:58;7.07;;;1.30;;
22476;SDS011;65006;51.698;-0.292;2023-07-22T03:15:24;2.83;;;1.23;;
22476;SDS011;65006;51.698;-0.292;2023-07-22T03:17:54;4.82;;;1.10;;
22476;SDS011;65006;51.698;-0.292;2023-07-22T03:20:26;3.38;;;1.35;;
22476;SDS011;65006;51.698;-0.292;2023-07-22T03:22:52;3.03;;;1.33;;
22476;SDS011;65006;51.698;-0.292;2023-07-22T03:25:19;1.27;;;1.17;;
22476;SDS011;65006;51.698;-0.292;2023-07-22T03:27:46;3.25;;;1.33;;
22476;SDS011;65006;51.698;-0.292;2023-07-22T03:30:13;4.55;;;1.33;;
22476;SDS011;65006;51.698;-0.292;2023-07-22T03:32:42;2.67;;;1.40;;
22476;SDS011;65006;51.698;-0.292;2023-07-22T03:35:08;4.95;;;1.25;;
22476;SDS011;65006;51.698;-0.292;2023-07-22T03:37:37;2.88;;;1.30;;
22476;SDS011;65006;51.698;-0.292;2023-07-22T03:40:04;2.53;;;1.38;;
22476;SDS011;65006;51.698;-0.292;2023-07-22T03:42:42;4.38;;;1.23;;
22476;SDS011;65006;51.698;-0.292;2023-07-22T03:45:08;4.22;;;1.35;;
22476;SDS011;65006;51.698;-0.292;2023-07-22T03:47:35;2.30;;;1.23;;
22476;SDS011;65006;51.698;-0.292;2023-07-22T03:50:01;2.35;;;1.02;;
22476;SDS011;65006;51.698;-0.292;2023-07-22T03:52:27;6.70;;;1.50;;
22476;SDS011;65006;51.698;-0.292;2023-07-22T03:54:53;4.05;;;1.33;;
22476;SDS011;65006;51.698;-0.292;2023-07-22T03:57:22;2.40;;;0.80;;
22476;SDS011;65006;51.698;-0.292;2023-07-22T03:59:50;2.50;;;1.00;;
22476;SDS011;65006;51.698;-0.292;2023-07-22T04:02:16;6.18;;;1.00;;
22476;SDS011;65006;51.698;-0.292;2023-07-22T04:04:42;2.75;;;1.27;;
22476;SDS011;65006;51.698;-0.292;2023-07-22T04:07:08;3.88;;;1.40;;
22476;SDS011;65006;51.698;-0.292;2023-07-22T04:09:35;2.58;;;1.08;;
22476;SDS011;65006;51.698;-0.292;2023-07-22T04:12:01;1.70;;;1.10;;
22476;SDS011;65006;51.698;-0.292;2023-07-22T04:14:27;3.20;;;1.42;;
22476;SDS011;65006;51.698;-0.292;2023-07-22T04:16:53;1.58;;;0.90;;
22476;SDS011;65006;51.698;-0.292;2023-07-22T04:19:19;3.63;;;1.35;;
22476;SDS011;65006;51.698;-0.292;2023-07-22T04:21:45;2.53;;;0.90;;
22476;SDS011;65006;51.698;-0.292;2023-07-22T04:24:11;12.60;;;1.05;;
22476;SDS011;65006;51.698;-0.292;2023-07-22T04:26:37;5.35;;;0.82;;
22476;SDS011;65006;51.698;-0.292;2023-07-22T04:29:02;3.13;;;1.02;;
22476;SDS011;65006;51.698;-0.292;2023-07-22T04:31:28;2.20;;;1.20;;
22476;SDS011;65006;51.698;-0.292;2023-07-22T04:33:54;2.90;;;0.85;;
22476;SDS011;65006;51.698;-0.292;2023-07-22T04:36:21;4.53;;;1.10;;
22476;SDS011;65006;51.698;-0.292;2023-07-22T04:38:47;1.58;;;1.00;;
22476;SDS011;65006;51.698;-0.292;2023-07-22T04:41:12;2.42;;;1.02;;
22476;SDS011;65006;51.698;-0.292;2023-07-22T04:43:38;1.90;;;0.93;;
22476;SDS011;65006;51.698;-0.292;2023-07-22T04:46:05;1.95;;;1.10;;
22476;SDS011;65006;51.698;-0.292;2023-07-22T04:48:31;1.63;;;1.20;;
22476;SDS011;65006;51.698;-0.292;2023-07-22T04:50:57;3.00;;;1.38;;
22476;SDS011;65006;51.698;-0.292;2023-07-22T04:53:23;3.65;;;1.15;;
22476;SDS011;65006;51.698;-0.292;2023-07-22T04:55:49;1.55;;;0.80;;
22476;SDS011;65006;51.698;-0.292;2023-07-22T04:58:15;5.38;;;1.35;;
22476;SDS011;65006;51.698;-0.292;2023-07-22T05:00:41;2.60;;;1.05;;
22476;SDS011;65006;51.698;-0.292;2023-07-22T05:03:08;1.85;;;1.00;;
22476;SDS011;65006;51.698;-0.292;2023-07-22T05:05:34;1.58;;;1.00;;
22476;SDS011;65006;51.698;-0.292;2023-07-22T05:08:01;6.78;;;1.20;;
22476;SDS011;65006;51.698;-0.292;2023-07-22T05:10:27;1.40;;;1.10;;
22476;SDS011;65006;51.698;-0.292;2023-07-22T05:12:54;3.65;;;1.10;;
22476;SDS011;65006;51.698;-0.292;2023-07-22T05:15:22;3.22;;;1.17;;
22476;SDS011;65006;51.698;-0.292;2023-07-22T05:17:48;1.67;;;1.10;;
22476;SDS011;65006;51.698;-0.292;2023-07-22T05:20:14;2.50;;;0.88;;
22476;SDS011;65006;51.698;-0.292;2023-07-22T05:22:41;1.52;;;0.90;;
22476;SDS011;65006;51.698;-0.292;2023-07-22T05:25:07;0.88;;;0.80;;
22476;SDS011;65006;51.698;-0.292;2023-07-22T05:27:34;2.03;;;0.60;;
22476;SDS011;65006;51.698;-0.292;2023-07-22T05:30:00;6.03;;;0.90;;
22476;SDS011;65006;51.698;-0.292;2023-07-22T05:32:30;3.08;;;1.13;;
22476;SDS011;65006;51.698;-0.292;2023-07-22T05:34:56;3.05;;;0.90;;
22476;SDS011;65006;51.698;-0.292;2023-07-22T05:37:22;2.65;;;0.98;;
22476;SDS011;65006;51.698;-0.292;2023-07-22T05:42:14;3.78;;;0.85;;
22476;SDS011;65006;51.698;-0.292;2023-07-22T05:44:40;4.60;;;1.00;;
22476;SDS011;65006;51.698;-0.292;2023-07-22T05:47:07;4.10;;;0.90;;
22476;SDS011;65006;51.698;-0.292;2023-07-22T05:49:33;6.93;;;1.20;;
22476;SDS011;65006;51.698;-0.292;2023-07-22T05:51:59;4.05;;;1.08;;
22476;SDS011;65006;51.698;-0.292;2023-07-22T05:54:25;6.25;;;1.08;;
22476;SDS011;65006;51.698;-0.292;2023-07-22T05:56:51;2.33;;;1.05;;
22476;SDS011;65006;51.698;-0.292;2023-07-22T05:59:17;4.07;;;1.20;;
22476;SDS011;65006;51.698;-0.292;2023-07-22T06:01:43;2.60;;;0.85;;
22476;SDS011;65006;51.698;-0.292;2023-07-22T06:04:09;3.63;;;0.93;;
22476;SDS011;65006;51.698;-0.292;2023-07-22T06:06:35;1.50;;;0.77;;
22476;SDS011;65006;51.698;-0.292;2023-07-22T06:09:01;2.42;;;0.90;;
22476;SDS011;65006;51.698;-0.292;2023-07-22T06:11:27;2.67;;;1.23;;
22476;SDS011;65006;51.698;-0.292;2023-07-22T06:13:53;2.00;;;1.10;;
22476;SDS011;65006;51.698;-0.292;2023-07-22T06:16:19;2.97;;;1.02;;
22476;SDS011;65006;51.698;-0.292;2023-07-22T06:18:45;1.83;;;0.93;;
22476;SDS011;65006;51.698;-0.292;2023-07-22T06:21:11;3.65;;;1.13;;
22476;SDS011;65006;51.698;-0.292;2023-07-22T06:23:37;2.40;;;0.85;;
22476;SDS011;65006;51.698;-0.292;2023-07-22T06:26:03;6.63;;;1.48;;
22476;SDS011;65006;51.698;-0.292;2023-07-22T06:28:29;1.20;;;0.70;;
22476;SDS011;65006;51.698;-0.292;2023-07-22T06:30:55;2.53;;;0.70;;
22476;SDS011;65006;51.698;-0.292;2023-07-22T06:33:22;4.78;;;1.38;;
22476;SDS011;65006;51.698;-0.292;2023-07-22T06:35:48;4.00;;;1.42;;
22476;SDS011;65006;51.698;-0.292;2023-07-22T06:38:14;2.78;;;0.70;;
22476;SDS011;65006;51.698;-0.292;2023-07-22T06:40:40;2.47;;;0.70;;
22476;SDS011;65006;51.698;-0.292;2023-07-22T06:43:06;2.75;;;1.00;;
22476;SDS011;65006;51.698;-0.292;2023-07-22T06:45:32;1.33;;;0.85;;
22476;SDS011;65006;51.698;-0.292;2023-07-22T06:47:58;2.17;;;0.90;;
22476;SDS011;65006;51.698;-0.292;2023-07-22T06:50:24;2.45;;;1.25;;
22476;SDS011;65006;51.698;-0.292;2023-07-22T06:52:50;2.97;;;0.85;;
22476;SDS011;65006;51.698;-0.292;2023-07-22T06:55:16;1.92;;;0.88;;
22476;SDS011;65006;51.698;-0.292;2023-07-22T06:57:42;3.75;;;1.23;;
22476;SDS011;65006;51.698;-0.292;2023-07-22T07:00:09;4.47;;;1.30;;
22476;SDS011;65006;51.698;-0.292;2023-07-22T07:02:35;5.75;;;1.23;;
22476;SDS011;65006;51.698;-0.292;2023-07-22T07:05:01;1.45;;;0.75;;
22476;SDS011;65006;51.698;-0.292;2023-07-22T07:07:27;4.43;;;0.88;;
22476;SDS011;65006;51.698;-0.292;2023-07-22T07:09:53;1.77;;;0.95;;
22476;SDS011;65006;51.698;-0.292;2023-07-22T07:12:19;1.38;;;1.00;;
22476;SDS011;65006;51.698;-0.292;2023-07-22T07:14:45;2.22;;;0.90;;
22476;SDS011;65006;51.698;-0.292;2023-07-22T07:17:11;4.50;;;1.02;;
22476;SDS011;65006;51.698;-0.292;2023-07-22T07:19:37;1.98;;;0.93;;
22476;SDS011;65006;51.698;-0.292;2023-07-22T07:22:03;4.15;;;0.90;;
22476;SDS011;65006;51.698;-0.292;2023-07-22T07:24:29;1.85;;;0.80;;
22476;SDS011;65006;51.698;-0.292;2023-07-22T07:26:55;1.02;;;0.75;;
22476;SDS011;65006;51.698;-0.292;2023-07-22T07:29:21;1.60;;;0.90;;
22476;SDS011;65006;51.698;-0.292;2023-07-22T07:31:47;2.55;;;1.38;;
22476;SDS011;65006;51.698;-0.292;2023-07-22T07:34:13;3.83;;;1.23;;
22476;SDS011;65006;51.698;-0.292;2023-07-22T07:36:39;2.50;;;1.00;;
22476;SDS011;65006;51.698;-0.292;2023-07-22T07:39:05;2.47;;;0.88;;
22476;SDS011;65006;51.698;-0.292;2023-07-22T07:41:32;3.08;;;1.67;;
22476;SDS011;65006;51.698;-0.292;2023-07-22T07:43:58;2.88;;;1.30;;
22476;SDS011;65006;51.698;-0.292;2023-07-22T07:46:25;2.63;;;1.10;;
22476;SDS011;65006;51.698;-0.292;2023-07-22T07:48:53;3.28;;;1.10;;
22476;SDS011;65006;51.698;-0.292;2023-07-22T07:51:20;3.05;;;1.00;;
22476;SDS011;65006;51.698;-0.292;2023-07-22T07:53:46;2.40;;;0.90;;
22476;SDS011;65006;51.698;-0.292;2023-07-22T07:56:12;4.28;;;0.95;;
22476;SDS011;65006;51.698;-0.292;2023-07-22T07:58:38;2.30;;;0.90;;
22476;SDS011;65006;51.698;-0.292;2023-07-22T08:01:04;2.70;;;1.10;;
22476;SDS011;65006;51.698;-0.292;2023-07-22T08:03:31;3.47;;;1.17;;
22476;SDS011;65006;51.698;-0.292;2023-07-22T08:05:57;3.33;;;1.20;;
22476;SDS011;65006;51.698;-0.292;2023-07-22T08:08:23;3.28;;;1.27;;
22476;SDS011;65006;51.698;-0.292;2023-07-22T08:10:59;3.13;;;0.98;;
22476;SDS011;65006;51.698;-0.292;2023-07-22T08:13:25;4.25;;;1.33;;
22476;SDS011;65006;51.698;-0.292;2023-07-22T08:15:52;4.68;;;1.48;;
22476;SDS011;65006;51.698;-0.292;2023-07-22T08:20:44;1.58;;;0.80;;
22476;SDS011;65006;51.698;-0.292;2023-07-22T08:23:12;1.83;;;1.25;;
22476;SDS011;65006;51.698;-0.292;2023-07-22T08:25:38;2.65;;;1.20;;
22476;SDS011;65006;51.698;-0.292;2023-07-22T08:28:04;6.88;;;1.35;;
22476;SDS011;65006;51.698;-0.292;2023-07-22T08:30:30;1.90;;;1.17;;
22476;SDS011;65006;51.698;-0.292;2023-07-22T08:32:56;2.00;;;0.90;;
22476;SDS011;65006;51.698;-0.292;2023-07-22T08:35:22;2.85;;;1.17;;
22476;SDS011;65006;51.698;-0.292;2023-07-22T08:37:48;3.85;;;1.25;;
22476;SDS011;65006;51.698;-0.292;2023-07-22T08:40:14;3.17;;;1.10;;
22476;SDS011;65006;51.698;-0.292;2023-07-22T08:42:41;4.78;;;1.38;;
22476;SDS011;65006;51.698;-0.292;2023-07-22T08:45:09;2.15;;;1.10;;
22476;SDS011;65006;51.698;-0.292;2023-07-22T08:47:37;4.63;;;1.17;;
22476;SDS011;65006;51.698;-0.292;2023-07-22T08:50:04;4.03;;;1.40;;
22476;SDS011;65006;51.698;-0.292;2023-07-22T08:52:31;3.05;;;1.33;;
22476;SDS011;65006;51.698;-0.292;2023-07-22T08:54:58;3.17;;;1.33;;
22476;SDS011;65006;51.698;-0.292;2023-07-22T08:57:26;5.25;;;1.42;;
22476;SDS011;65006;51.698;-0.292;2023-07-22T08:59:52;2.70;;;1.27;;
22476;SDS011;65006;51.698;-0.292;2023-07-22T09:02:19;2.53;;;1.02;;
22476;SDS011;65006;51.698;-0.292;2023-07-22T09:04:45;2.83;;;1.20;;
22476;SDS011;65006;51.698;-0.292;2023-07-22T09:07:11;3.78;;;1.60;;
22476;SDS011;65006;51.698;-0.292;2023-07-22T09:09:38;2.85;;;1.45;;
22476;SDS011;65006;51.698;-0.292;2023-07-22T09:12:04;2.90;;;1.45;;
22476;SDS011;65006;51.698;-0.292;2023-07-22T09:14:31;2.13;;;1.27;;
22476;SDS011;65006;51.698;-0.292;2023-07-22T09:16:59;5.32;;;1.70;;
22476;SDS011;65006;51.698;-0.292;2023-07-22T09:19:25;4.32;;;2.03;;
22476;SDS011;65006;51.698;-0.292;2023-07-22T09:24:21;4.13;;;1.60;;
22476;SDS011;65006;51.698;-0.292;2023-07-22T09:26:48;3.65;;;1.40;;
22476;SDS011;65006;51.698;-0.292;2023-07-22T09:29:14;3.78;;;2.13;;
22476;SDS011;65006;51.698;-0.292;2023-07-22T09:31:50;6.07;;;1.80;;
22476;SDS011;65006;51.698;-0.292;2023-07-22T09:34:16;3.83;;;1.70;;
22476;SDS011;65006;51.698;-0.292;2023-07-22T09:36:49;6.93;;;1.83;;
22476;SDS011;65006;51.698;-0.292;2023-07-22T09:39:16;4.13;;;1.40;;
22476;SDS011;65006;51.698;-0.292;2023-07-22T09:41:42;5.22;;;1.90;;
22476;SDS011;65006;51.698;-0.292;2023-07-22T09:44:11;6.43;;;1.75;;
22476;SDS011;65006;51.698;-0.292;2023-07-22T09:46:37;2.28;;;1.27;;
22476;SDS011;65006;51.698;-0.292;2023-07-22T09:49:08;3.25;;;1.50;;
22476;SDS011;65006;51.698;-0.292;2023-07-22T09:51:43;2.63;;;1.35;;
22476;SDS011;65006;51.698;-0.292;2023-07-22T09:54:09;6.15;;;1.88;;
22476;SDS011;65006;51.698;-0.292;2023-07-22T09:56:49;2.53;;;1.60;;
22476;SDS011;65006;51.698;-0.292;2023-07-22T09:59:17;3.80;;;1.55;;
22476;SDS011;65006;51.698;-0.292;2023-07-22T10:01:45;3.67;;;1.60;;
22476;SDS011;65006;51.698;-0.292;2023-07-22T10:04:14;3.00;;;1.85;;
22476;SDS011;65006;51.698;-0.292;2023-07-22T10:06:41;2.97;;;1.65;;
22476;SDS011;65006;51.698;-0.292;2023-07-22T10:11:35;3.83;;;1.30;;
22476;SDS011;65006;51.698;-0.292;2023-07-22T10:14:01;2.55;;;1.60;;
22476;SDS011;65006;51.698;-0.292;2023-07-22T10:16:27;3.60;;;1.48;;
22476;SDS011;65006;51.698;-0.292;2023-07-22T10:18:54;5.60;;;1.60;;
22476;SDS011;65006;51.698;-0.292;2023-07-22T10:21:21;7.13;;;1.42;;
22476;SDS011;65006;51.698;-0.292;2023-07-22T10:23:47;2.72;;;1.45;;
22476;SDS011;65006;51.698;-0.292;2023-07-22T10:26:17;2.85;;;1.33;;
22476;SDS011;65006;51.698;-0.292;2023-07-22T10:28:44;4.25;;;1.42;;
22476;SDS011;65006;51.698;-0.292;2023-07-22T10:31:10;4.35;;;1.75;;
22476;SDS011;65006;51.698;-0.292;2023-07-22T10:33:38;4.32;;;1.45;;
22476;SDS011;65006;51.698;-0.292;2023-07-22T10:38:30;4.88;;;1.80;;
22476;SDS011;65006;51.698;-0.292;2023-07-22T10:40:57;3.03;;;1.48;;
22476;SDS011;65006;51.698;-0.292;2023-07-22T10:45:53;2.42;;;1.38;;
22476;SDS011;65006;51.698;-0.292;2023-07-22T10:48:20;3.28;;;1.58;;
22476;SDS011;65006;51.698;-0.292;2023-07-22T10:50:46;4.43;;;1.60;;
22476;SDS011;65006;51.698;-0.292;2023-07-22T10:53:14;6.38;;;1.95;;
22476;SDS011;65006;51.698;-0.292;2023-07-22T10:58:33;2.25;;;1.35;;
22476;SDS011;65006;51.698;-0.292;2023-07-22T11:06:36;4.47;;;1.85;;
22476;SDS011;65006;51.698;-0.292;2023-07-22T11:09:02;4.63;;;1.90;;
22476;SDS011;65006;51.698;-0.292;2023-07-22T11:11:35;3.60;;;1.58;;
22476;SDS011;65006;51.698;-0.292;2023-07-22T11:14:12;4.22;;;2.33;;
22476;SDS011;65006;51.698;-0.292;2023-07-22T11:16:38;3.93;;;2.03;;
22476;SDS011;65006;51.698;-0.292;2023-07-22T11:19:04;2.22;;;1.52;;
22476;SDS011;65006;51.698;-0.292;2023-07-22T11:21:30;3.50;;;1.60;;
22476;SDS011;65006;51.698;-0.292;2023-07-22T11:23:56;2.88;;;1.20;;
22476;SDS011;65006;51.698;-0.292;2023-07-22T11:26:22;2.85;;;1.55;;
22476;SDS011;65006;51.698;-0.292;2023-07-22T11:28:48;6.05;;;1.77;;
22476;SDS011;65006;51.698;-0.292;2023-07-22T11:31:14;4.13;;;1.70;;
22476;SDS011;65006;51.698;-0.292;2023-07-22T11:33:40;3.80;;;1.55;;
22476;SDS011;65006;51.698;-0.292;2023-07-22T11:36:09;5.30;;;1.80;;
22476;SDS011;65006;51.698;-0.292;2023-07-22T11:38:35;2.65;;;1.42;;
22476;SDS011;65006;51.698;-0.292;2023-07-22T11:41:02;5.95;;;2.33;;
22476;SDS011;65006;51.698;-0.292;2023-07-22T11:43:28;3.22;;;1.92;;
22476;SDS011;65006;51.698;-0.292;2023-07-22T11:45:54;4.93;;;1.75;;
22476;SDS011;65006;51.698;-0.292;2023-07-22T11:48:20;3.17;;;1.60;;
22476;SDS011;65006;51.698;-0.292;2023-07-22T11:50:46;3.15;;;1.55;;
22476;SDS011;65006;51.698;-0.292;2023-07-22T11:53:12;5.78;;;2.08;;
22476;SDS011;65006;51.698;-0.292;2023-07-22T11:55:39;3.22;;;1.60;;
22476;SDS011;65006;51.698;-0.292;2023-07-22T11:58:05;5.13;;;1.95;;
22476;SDS011;65006;51.698;-0.292;2023-07-22T12:00:32;5.03;;;2.10;;
22476;SDS011;65006;51.698;-0.292;2023-07-22T12:03:05;6.63;;;2.22;;
22476;SDS011;65006;51.698;-0.292;2023-07-22T12:05:31;5.95;;;2.65;;
22476;SDS011;65006;51.698;-0.292;2023-07-22T12:08:02;7.07;;;2.38;;
22476;SDS011;65006;51.698;-0.292;2023-07-22T12:10:29;11.27;;;2.13;;
22476;SDS011;65006;51.698;-0.292;2023-07-22T12:12:55;5.10;;;2.15;;
22476;SDS011;65006;51.698;-0.292;2023-07-22T12:15:25;4.80;;;2.10;;
22476;SDS011;65006;51.698;-0.292;2023-07-22T12:17:52;5.35;;;2.25;;
22476;SDS011;65006;51.698;-0.292;2023-07-22T12:20:24;8.77;;;2.80;;
22476;SDS011;65006;51.698;-0.292;2023-07-22T12:22:51;4.15;;;2.08;;
22476;SDS011;65006;51.698;-0.292;2023-07-22T12:25:17;5.60;;;2.15;;
22476;SDS011;65006;51.698;-0.292;2023-07-22T12:27:43;4.45;;;2.25;;
22476;SDS011;65006;51.698;-0.292;2023-07-22T12:30:10;6.35;;;2.70;;
22476;SDS011;65006;51.698;-0.292;2023-07-22T12:32:37;4.05;;;1.88;;
22476;SDS011;65006;51.698;-0.292;2023-07-22T12:35:03;4.60;;;2.35;;
22476;SDS011;65006;51.698;-0.292;2023-07-22T12:37:29;6.35;;;2.63;;
22476;SDS011;65006;51.698;-0.292;2023-07-22T12:39:56;5.13;;;2.60;;
22476;SDS011;65006;51.698;-0.292;2023-07-22T12:42:22;5.25;;;2.58;;
22476;SDS011;65006;51.698;-0.292;2023-07-22T12:44:48;7.97;;;3.35;;
22476;SDS011;65006;51.698;-0.292;2023-07-22T12:47:14;9.05;;;2.92;;
22476;SDS011;65006;51.698;-0.292;2023-07-22T12:49:40;4.65;;;2.65;;
22476;SDS011;65006;51.698;-0.292;2023-07-22T12:52:06;6.68;;;3.15;;
22476;SDS011;65006;51.698;-0.292;2023-07-22T12:54:34;6.70;;;2.58;;
22476;SDS011;65006;51.698;-0.292;2023-07-22T12:57:00;7.43;;;2.92;;
22476;SDS011;65006;51.698;-0.292;2023-07-22T12:59:27;6.13;;;2.92;;
22476;SDS011;65006;51.698;-0.292;2023-07-22T13:01:53;3.45;;;2.05;;
22476;SDS011;65006;51.698;-0.292;2023-07-22T13:04:19;6.10;;;2.78;;
22476;SDS011;65006;51.698;-0.292;2023-07-22T13:06:45;8.82;;;3.42;;
22476;SDS011;65006;51.698;-0.292;2023-07-22T13:09:11;5.18;;;2.20;;
22476;SDS011;65006;51.698;-0.292;2023-07-22T13:11:37;6.30;;;3.25;;
22476;SDS011;65006;51.698;-0.292;2023-07-22T13:14:03;5.38;;;2.42;;
22476;SDS011;65006;51.698;-0.292;2023-07-22T13:16:29;9.23;;;2.22;;
22476;SDS011;65006;51.698;-0.292;2023-07-22T13:18:57;5.55;;;2.35;;
22476;SDS011;65006;51.698;-0.292;2023-07-22T13:21:25;7.22;;;2.63;;
22476;SDS011;65006;51.698;-0.292;2023-07-22T13:23:52;7.00;;;2.67;;
22476;SDS011;65006;51.698;-0.292;2023-07-22T13:26:18;6.82;;;2.30;;
22476;SDS011;65006;51.698;-0.292;2023-07-22T13:28:44;7.30;;;2.58;;
22476;SDS011;65006;51.698;-0.292;2023-07-22T13:31:10;6.07;;;2.45;;
22476;SDS011;65006;51.698;-0.292;2023-07-22T13:33:36;5.75;;;2.60;;
22476;SDS011;65006;51.698;-0.292;2023-07-22T13:36:02;4.72;;;2.60;;
22476;SDS011;65006;51.698;-0.292;2023-07-22T13:38:28;7.63;;;2.70;;
22476;SDS011;65006;51.698;-0.292;2023-07-22T13:40:54;9.00;;;3.33;;
22476;SDS011;65006;51.698;-0.292;2023-07-22T13:43:20;6.20;;;2.78;;
22476;SDS011;65006;51.698;-0.292;2023-07-22T13:45:46;5.20;;;2.70;;
22476;SDS011;65006;51.698;-0.292;2023-07-22T13:48:12;7.43;;;2.85;;
22476;SDS011;65006;51.698;-0.292;2023-07-22T13:50:38;6.75;;;2.83;;
22476;SDS011;65006;51.698;-0.292;2023-07-22T13:53:05;4.80;;;2.35;;
22476;SDS011;65006;51.698;-0.292;2023-07-22T13:55:31;4.85;;;2.13;;
22476;SDS011;65006;51.698;-0.292;2023-07-22T13:57:57;6.78;;;3.30;;
22476;SDS011;65006;51.698;-0.292;2023-07-22T14:00:23;6.43;;;3.00;;
22476;SDS011;65006;51.698;-0.292;2023-07-22T14:02:49;6.65;;;2.33;;
22476;SDS011;65006;51.698;-0.292;2023-07-22T14:05:15;5.45;;;2.47;;
22476;SDS011;65006;51.698;-0.292;2023-07-22T14:07:41;6.97;;;2.72;;
22476;SDS011;65006;51.698;-0.292;2023-07-22T14:10:07;8.50;;;2.58;;
22476;SDS011;65006;51.698;-0.292;2023-07-22T14:12:34;7.30;;;2.70;;
22476;SDS011;65006;51.698;-0.292;2023-07-22T14:15:00;7.70;;;3.25;;
22476;SDS011;65006;51.698;-0.292;2023-07-22T14:17:28;7.00;;;2.72;;
22476;SDS011;65006;51.698;-0.292;2023-07-22T14:19:54;8.95;;;3.38;;
22476;SDS011;65006;51.698;-0.292;2023-07-22T14:22:20;5.72;;;2.60;;
22476;SDS011;65006;51.698;-0.292;2023-07-22T14:24:46;5.20;;;2.75;;
22476;SDS011;65006;51.698;-0.292;2023-07-22T14:27:12;4.70;;;2.70;;
22476;SDS011;65006;51.698;-0.292;2023-07-22T14:29:38;4.97;;;2.75;;
22476;SDS011;65006;51.698;-0.292;2023-07-22T14:32:04;5.40;;;2.85;;
22476;SDS011;65006;51.698;-0.292;2023-07-22T14:34:30;4.75;;;2.97;;
22476;SDS011;65006;51.698;-0.292;2023-07-22T14:36:57;6.53;;;3.42;;
22476;SDS011;65006;51.698;-0.292;2023-07-22T14:39:23;6.68;;;3.17;;
22476;SDS011;65006;51.698;-0.292;2023-07-22T14:41:49;5.93;;;3.15;;
22476;SDS011;65006;51.698;-0.292;2023-07-22T14:44:16;6.18;;;3.00;;
22476;SDS011;65006;51.698;-0.292;2023-07-22T14:46:42;10.40;;;3.35;;
22476;SDS011;65006;51.698;-0.292;2023-07-22T14:49:08;9.85;;;3.45;;
22476;SDS011;65006;51.698;-0.292;2023-07-22T14:51:34;11.80;;;3.50;;
22476;SDS011;65006;51.698;-0.292;2023-07-22T14:54:01;6.53;;;2.85;;
22476;SDS011;65006;51.698;-0.292;2023-07-22T14:56:27;5.30;;;2.78;;